createdAt,value
2023-05-23T00:02:08.238Z,2.95
2023-05-23T00:04:38.683Z,2.60
2023-05-23T00:07:06.308Z,3.00
2023-05-23T00:09:33.764Z,3.03
2023-05-23T00:12:01.992Z,2.97
2023-05-23T00:14:34.042Z,2.67
2023-05-23T00:17:02.004Z,3.05
2023-05-23T00:19:29.675Z,3.67
2023-05-23T00:21:58.483Z,2.17
2023-05-23T00:24:27.259Z,2.70
2023-05-23T00:26:54.802Z,2.10
2023-05-23T00:29:22.230Z,2.28
2023-05-23T00:31:50.824Z,2.87
2023-05-23T00:34:18.575Z,2.37
2023-05-23T00:36:48.077Z,1.90
2023-05-23T00:39:20.688Z,1.95
2023-05-23T00:41:52.138Z,2.53
2023-05-23T00:44:21.876Z,2.47
2023-05-23T00:46:53.311Z,3.42
2023-05-23T00:49:21.483Z,2.83
2023-05-23T00:51:52.045Z,3.47
2023-05-23T00:54:29.619Z,2.83
2023-05-23T00:56:58.409Z,2.65
2023-05-23T00:59:26.591Z,2.45
2023-05-23T01:01:56.460Z,2.47
2023-05-23T01:04:26.704Z,2.62
2023-05-23T01:06:55.585Z,2.95
2023-05-23T01:09:23.917Z,2.15
2023-05-23T01:12:10.831Z,2.35
2023-05-23T01:14:47.310Z,2.00
2023-05-23T01:17:24.996Z,2.15
2023-05-23T01:20:01.367Z,2.20
2023-05-23T01:23:00.419Z,2.10
2023-05-23T01:25:59.504Z,1.50
2023-05-23T01:28:33.988Z,2.40
2023-05-23T01:31:02.988Z,2.00
2023-05-23T01:33:32.179Z,3.00
2023-05-23T01:36:02.541Z,2.55
2023-05-23T01:38:30.189Z,2.90
2023-05-23T01:40:58.345Z,2.12
2023-05-23T01:43:25.959Z,2.45
2023-05-23T01:45:54.717Z,3.03
2023-05-23T01:48:24.076Z,2.37
2023-05-23T01:50:51.672Z,2.95
2023-05-23T01:53:21.597Z,2.15
2023-05-23T01:55:49.546Z,2.67
2023-05-23T01:58:17.434Z,3.10
2023-05-23T02:00:45.213Z,1.83
2023-05-23T02:03:13.146Z,2.50
2023-05-23T02:05:41.305Z,2.03
2023-05-23T02:08:09.164Z,2.33
2023-05-23T02:10:38.977Z,2.75
2023-05-23T02:13:06.511Z,2.75
2023-05-23T02:15:33.984Z,3.05
2023-05-23T02:18:03.305Z,2.75
2023-05-23T02:20:31.339Z,2.15
2023-05-23T02:22:59.085Z,2.20
2023-05-23T02:25:26.817Z,2.47
2023-05-23T02:27:54.298Z,2.50
2023-05-23T02:30:22.459Z,2.58
2023-05-23T02:32:50.310Z,2.80
2023-05-23T02:35:17.974Z,2.87
2023-05-23T02:37:46.286Z,2.92
2023-05-23T02:40:14.008Z,2.53
2023-05-23T02:42:42.264Z,2.92
2023-05-23T02:45:10.379Z,1.98
2023-05-23T02:47:38.063Z,2.60
2023-05-23T02:50:06.083Z,3.40
2023-05-23T02:52:34.155Z,2.70
2023-05-23T02:55:01.981Z,2.22
2023-05-23T02:57:29.749Z,2.05
2023-05-23T02:59:57.573Z,2.58
2023-05-23T03:02:25.143Z,1.98
2023-05-23T03:04:52.669Z,3.05
2023-05-23T03:07:27.486Z,2.65
2023-05-23T03:12:23.359Z,2.42
2023-05-23T03:14:50.864Z,2.30
2023-05-23T03:17:18.433Z,2.17
2023-05-23T03:19:46.199Z,3.17
2023-05-23T03:22:13.700Z,2.92
2023-05-23T03:24:43.179Z,2.50
2023-05-23T03:27:11.850Z,2.05
2023-05-23T03:29:39.734Z,2.47
2023-05-23T03:32:07.377Z,2.92
2023-05-23T03:34:36.651Z,3.47
2023-05-23T03:37:04.599Z,3.03
2023-05-23T03:39:32.121Z,2.53
2023-05-23T03:41:59.939Z,2.78
2023-05-23T03:44:27.877Z,2.50
2023-05-23T03:46:55.652Z,2.95
2023-05-23T03:49:23.433Z,2.72
2023-05-23T03:51:51.552Z,2.92
2023-05-23T03:54:19.146Z,2.08
2023-05-23T03:56:46.953Z,2.45
2023-05-23T03:59:15.859Z,2.65
2023-05-23T04:01:43.659Z,2.45
2023-05-23T04:04:11.556Z,2.85
2023-05-23T04:06:39.542Z,2.33
2023-05-23T04:09:07.084Z,2.08
2023-05-23T04:11:35.570Z,2.85
2023-05-23T04:14:04.408Z,2.08
2023-05-23T04:16:33.452Z,2.15
2023-05-23T04:19:05.477Z,2.90
2023-05-23T04:21:33.917Z,3.28
2023-05-23T04:24:03.067Z,2.05
2023-05-23T04:26:30.972Z,2.60
2023-05-23T04:28:59.327Z,2.78
2023-05-23T04:31:27.288Z,3.10
2023-05-23T04:33:54.866Z,2.65
2023-05-23T04:36:23.634Z,2.30
2023-05-23T04:38:52.369Z,2.05
2023-05-23T04:41:23.528Z,2.30
2023-05-23T04:43:54.592Z,3.20
2023-05-23T04:46:26.465Z,2.62
2023-05-23T04:48:58.887Z,3.15
2023-05-23T04:51:26.527Z,2.70
2023-05-23T04:53:54.419Z,2.67
2023-05-23T04:56:27.357Z,2.65
2023-05-23T04:58:56.094Z,3.65
2023-05-23T05:01:24.904Z,2.70
2023-05-23T05:03:53.064Z,3.45
2023-05-23T05:06:21.742Z,2.40
2023-05-23T05:08:49.950Z,2.37
2023-05-23T05:11:17.465Z,2.72
2023-05-23T05:13:44.956Z,3.00
2023-05-23T05:16:12.789Z,2.47
2023-05-23T05:18:40.479Z,3.20
2023-05-23T05:21:08.301Z,2.83
2023-05-23T05:23:37.631Z,3.35
2023-05-23T05:26:06.523Z,4.75
2023-05-23T05:28:33.996Z,3.25
2023-05-23T05:31:05.214Z,2.42
2023-05-23T05:33:36.444Z,3.80
2023-05-23T05:36:06.608Z,3.37
2023-05-23T05:38:34.284Z,3.47
2023-05-23T05:41:01.820Z,4.45
2023-05-23T05:43:30.388Z,3.78
2023-05-23T05:45:57.897Z,2.80
2023-05-23T05:48:25.517Z,3.58
2023-05-23T05:50:54.022Z,2.97
2023-05-23T05:53:21.490Z,3.42
2023-05-23T05:55:49.032Z,2.87
2023-05-23T05:58:16.856Z,3.22
2023-05-23T06:00:45.441Z,3.53
2023-05-23T06:03:14.226Z,3.30
2023-05-23T06:05:43.323Z,3.60
2023-05-23T06:08:12.178Z,3.17
2023-05-23T06:10:40.184Z,2.65
2023-05-23T06:13:07.874Z,2.95
2023-05-23T06:15:36.106Z,3.67
2023-05-23T06:18:04.271Z,3.25
2023-05-23T06:20:32.031Z,3.22
2023-05-23T06:23:00.483Z,3.45
2023-05-23T06:25:28.476Z,3.90
2023-05-23T06:27:55.983Z,3.55
2023-05-23T06:30:24.471Z,3.42
2023-05-23T06:32:52.535Z,3.85
2023-05-23T06:35:20.129Z,3.17
2023-05-23T06:37:48.478Z,4.32
2023-05-23T06:40:16.376Z,4.07
2023-05-23T06:42:43.956Z,3.00
2023-05-23T06:45:12.822Z,3.47
2023-05-23T06:47:43.957Z,3.28
2023-05-23T06:50:11.690Z,3.20
2023-05-23T06:52:39.391Z,4.15
2023-05-23T06:55:07.431Z,3.83
2023-05-23T06:57:35.303Z,4.55
2023-05-23T07:00:02.990Z,4.32
2023-05-23T07:02:32.645Z,3.60
2023-05-23T07:05:00.355Z,3.33
2023-05-23T07:07:29.734Z,3.67
2023-05-23T07:09:57.497Z,3.33
2023-05-23T07:12:25.288Z,3.97
2023-05-23T07:14:52.828Z,4.07
2023-05-23T07:17:21.151Z,5.72
2023-05-23T07:19:48.944Z,4.28
2023-05-23T07:22:16.439Z,5.93
2023-05-23T07:24:44.496Z,4.82
2023-05-23T07:27:12.642Z,4.68
2023-05-23T07:29:40.087Z,4.43
2023-05-23T07:32:08.294Z,4.20
2023-05-23T07:34:35.797Z,4.60
2023-05-23T07:37:03.592Z,4.45
2023-05-23T07:39:32.039Z,4.90
2023-05-23T07:42:00.069Z,3.45
2023-05-23T07:44:28.630Z,3.90
2023-05-23T07:46:56.599Z,4.43
2023-05-23T07:49:24.374Z,3.50
2023-05-23T07:51:51.875Z,4.72
2023-05-23T07:54:19.635Z,3.95
2023-05-23T07:56:48.932Z,4.18
2023-05-23T07:59:16.754Z,4.95
2023-05-23T08:01:45.671Z,5.07
2023-05-23T08:04:13.839Z,4.85
2023-05-23T08:06:48.815Z,3.83
2023-05-23T08:09:24.932Z,5.28
2023-05-23T08:11:52.693Z,4.87
2023-05-23T08:14:21.823Z,4.25
2023-05-23T08:16:50.886Z,4.68
2023-05-23T08:19:18.940Z,3.50
2023-05-23T08:21:47.230Z,4.45
2023-05-23T08:24:15.529Z,4.57
2023-05-23T08:26:43.552Z,4.25
2023-05-23T08:29:11.321Z,4.35
2023-05-23T08:31:39.357Z,4.80
2023-05-23T08:34:08.023Z,4.05
2023-05-23T08:36:37.051Z,4.68
2023-05-23T08:39:05.856Z,5.93
2023-05-23T08:41:34.346Z,4.82
2023-05-23T08:44:02.250Z,5.10
2023-05-23T08:46:31.757Z,5.00
2023-05-23T08:49:01.101Z,5.37
2023-05-23T08:51:29.720Z,3.90
2023-05-23T08:53:59.458Z,5.47
2023-05-23T08:56:28.473Z,4.65
2023-05-23T08:58:58.191Z,4.95
2023-05-23T09:01:26.613Z,4.75
2023-05-23T09:03:55.980Z,4.95
2023-05-23T09:06:25.431Z,4.28
2023-05-23T09:08:54.129Z,4.18
2023-05-23T09:11:22.098Z,4.43
2023-05-23T09:13:49.944Z,4.97
2023-05-23T09:16:18.488Z,4.78
2023-05-23T09:18:46.574Z,4.50
2023-05-23T09:21:14.559Z,4.05
2023-05-23T09:23:43.964Z,3.97
2023-05-23T09:26:13.344Z,4.60
2023-05-23T09:28:43.245Z,4.35
2023-05-23T09:31:11.144Z,5.68
2023-05-23T09:33:49.494Z,5.68
2023-05-23T09:36:18.216Z,4.40
2023-05-23T09:38:47.107Z,5.35
2023-05-23T09:41:14.912Z,5.53
2023-05-23T09:43:52.597Z,5.35
2023-05-23T09:46:21.432Z,6.05
2023-05-23T09:48:53.907Z,4.47
2023-05-23T09:51:23.481Z,5.50
2023-05-23T09:53:53.007Z,6.05
2023-05-23T09:56:20.561Z,6.72
2023-05-23T09:58:49.822Z,6.12
2023-05-23T10:01:18.038Z,6.22
2023-05-23T10:03:50.896Z,6.43
2023-05-23T10:06:32.943Z,4.75
2023-05-23T10:09:08.736Z,5.03
2023-05-23T10:12:14.407Z,5.32
2023-05-23T10:14:46.188Z,5.15
2023-05-23T10:17:25.815Z,4.07
2023-05-23T10:20:10.291Z,4.85
2023-05-23T10:22:38.331Z,4.68
2023-05-23T10:25:07.509Z,4.82
2023-05-23T10:27:35.310Z,4.85
2023-05-23T10:30:02.843Z,4.82
2023-05-23T10:32:31.802Z,3.92
2023-05-23T10:34:59.185Z,4.80
2023-05-23T10:37:33.051Z,4.90
2023-05-23T10:40:29.156Z,4.18
2023-05-23T10:43:04.405Z,4.72
2023-05-23T10:45:42.383Z,4.93
2023-05-23T10:48:28.508Z,4.25
2023-05-23T10:51:06.184Z,4.78
2023-05-23T10:53:44.312Z,5.03
2023-05-23T10:56:22.477Z,4.43
2023-05-23T10:58:54.994Z,4.37
2023-05-23T11:01:23.989Z,4.68
2023-05-23T11:03:55.229Z,5.60
2023-05-23T11:06:39.266Z,4.47
2023-05-23T11:09:19.501Z,5.07
2023-05-23T11:11:53.574Z,4.82
2023-05-23T11:14:32.663Z,3.37
2023-05-23T11:17:30.780Z,4.47
2023-05-23T11:20:07.186Z,3.60
2023-05-23T11:22:36.103Z,3.95
2023-05-23T11:25:10.039Z,3.62
2023-05-23T11:27:39.984Z,4.37
2023-05-23T11:30:10.470Z,3.65
2023-05-23T11:32:38.393Z,3.97
2023-05-23T11:35:10.606Z,4.57
2023-05-23T11:37:38.977Z,3.87
2023-05-23T11:40:36.475Z,4.03
2023-05-23T11:43:06.157Z,4.72
2023-05-23T11:45:35.337Z,4.53
2023-05-23T11:48:13.111Z,5.10
2023-05-23T11:50:58.791Z,4.22
2023-05-23T11:53:27.936Z,3.95
2023-05-23T11:56:01.688Z,2.97
2023-05-23T11:58:36.454Z,4.22
2023-05-23T12:01:06.501Z,4.57
2023-05-23T12:03:35.326Z,4.32
2023-05-23T12:06:03.138Z,3.92
2023-05-23T12:08:30.796Z,4.15
2023-05-23T12:11:00.585Z,3.87
2023-05-23T12:13:31.546Z,4.65
2023-05-23T12:16:01.402Z,4.45
2023-05-23T12:18:31.504Z,4.50
2023-05-23T12:21:08.599Z,4.62
2023-05-23T12:23:36.873Z,5.10
2023-05-23T12:26:07.157Z,4.10
2023-05-23T12:28:36.470Z,4.28
2023-05-23T12:31:17.316Z,4.12
2023-05-23T12:33:46.130Z,5.37
2023-05-23T12:36:14.860Z,5.07
2023-05-23T12:38:45.417Z,4.62
2023-05-23T12:41:16.855Z,4.32
2023-05-23T12:43:55.913Z,4.25
2023-05-23T12:46:25.218Z,4.20
2023-05-23T12:48:53.539Z,4.93
2023-05-23T12:51:21.694Z,4.05
2023-05-23T12:53:49.219Z,3.80
2023-05-23T12:56:16.969Z,3.42
2023-05-23T12:58:44.510Z,3.70
2023-05-23T13:01:12.037Z,4.30
2023-05-23T13:03:39.845Z,4.12
2023-05-23T13:06:07.877Z,3.53
2023-05-23T13:08:35.319Z,4.28
2023-05-23T13:11:03.294Z,3.70
2023-05-23T13:13:32.514Z,3.83
2023-05-23T13:15:59.972Z,3.90
2023-05-23T13:18:27.737Z,3.87
2023-05-23T13:20:55.368Z,3.53
2023-05-23T13:23:22.958Z,3.25
2023-05-23T13:25:51.303Z,4.32
2023-05-23T13:28:18.866Z,3.67
2023-05-23T13:30:47.499Z,2.90
2023-05-23T13:33:15.924Z,2.75
2023-05-23T13:35:44.348Z,3.33
2023-05-23T13:38:12.753Z,4.07
2023-05-23T13:40:40.701Z,3.58
2023-05-23T13:43:08.567Z,3.85
2023-05-23T13:45:36.105Z,3.47
2023-05-23T13:48:04.031Z,3.22
2023-05-23T13:50:31.767Z,3.30
2023-05-23T13:52:59.548Z,3.75
2023-05-23T13:55:27.637Z,4.03
2023-05-23T13:57:55.180Z,3.92
2023-05-23T14:00:22.686Z,3.78
2023-05-23T14:02:50.569Z,3.72
2023-05-23T14:05:19.496Z,3.30
2023-05-23T14:07:47.546Z,3.47
2023-05-23T14:10:17.387Z,4.00
2023-05-23T14:12:45.021Z,3.75
2023-05-23T14:15:12.623Z,3.12
2023-05-23T14:17:40.423Z,3.72
2023-05-23T14:20:08.746Z,4.12
2023-05-23T14:22:36.514Z,3.05
2023-05-23T14:25:04.603Z,3.55
2023-05-23T14:27:32.920Z,3.42
2023-05-23T14:30:00.507Z,3.40
2023-05-23T14:32:28.372Z,3.75
2023-05-23T14:34:55.887Z,4.45
2023-05-23T14:37:23.402Z,4.80
2023-05-23T14:39:51.123Z,4.07
2023-05-23T14:42:18.586Z,4.20
2023-05-23T14:44:46.354Z,3.30
2023-05-23T14:47:14.249Z,4.55
2023-05-23T14:49:41.761Z,4.28
2023-05-23T14:52:09.274Z,3.67
2023-05-23T14:54:37.138Z,4.03
2023-05-23T14:57:05.117Z,3.95
2023-05-23T14:59:32.649Z,3.80
2023-05-23T15:02:00.542Z,3.58
2023-05-23T15:04:28.195Z,3.67
2023-05-23T15:06:55.819Z,3.67
2023-05-23T15:09:23.657Z,3.35
2023-05-23T15:11:51.162Z,3.25
2023-05-23T15:14:18.694Z,3.28
2023-05-23T15:16:48.837Z,3.00
2023-05-23T15:19:16.895Z,3.08
2023-05-23T15:21:50.341Z,3.78
2023-05-23T15:24:19.552Z,3.90
2023-05-23T15:26:47.513Z,4.15
2023-05-23T15:29:18.119Z,3.67
2023-05-23T15:31:46.132Z,3.47
2023-05-23T15:34:13.855Z,3.97
2023-05-23T15:36:41.301Z,3.60
2023-05-23T15:39:09.167Z,3.67
2023-05-23T15:41:36.644Z,3.25
2023-05-23T15:44:04.240Z,3.42
2023-05-23T15:46:32.082Z,3.37
2023-05-23T15:49:05.018Z,3.47
2023-05-23T15:51:38.318Z,3.45
2023-05-23T15:54:06.427Z,3.37
2023-05-23T15:56:33.894Z,2.50
2023-05-23T15:59:01.660Z,3.97
2023-05-23T16:01:29.598Z,3.30
2023-05-23T16:03:57.468Z,3.55
2023-05-23T16:06:25.399Z,2.78
2023-05-23T16:08:52.876Z,3.60
2023-05-23T16:11:21.818Z,3.15
2023-05-23T16:13:49.263Z,2.75
2023-05-23T16:16:16.781Z,3.08
2023-05-23T16:18:44.492Z,3.15
2023-05-23T16:21:12.124Z,3.62
2023-05-23T16:23:39.721Z,3.87
2023-05-23T16:26:07.467Z,3.83
2023-05-23T16:28:34.941Z,3.67
2023-05-23T16:31:02.473Z,3.33
2023-05-23T16:33:30.216Z,3.20
2023-05-23T16:35:57.696Z,3.33
2023-05-23T16:38:25.473Z,3.03
2023-05-23T16:40:53.196Z,3.60
2023-05-23T16:43:20.637Z,3.22
2023-05-23T16:45:48.430Z,3.30
2023-05-23T16:48:16.486Z,2.87
2023-05-23T16:50:44.370Z,3.12
2023-05-23T16:53:12.158Z,2.78
2023-05-23T16:55:40.261Z,2.90
2023-05-23T16:58:07.878Z,3.87
2023-05-23T17:00:35.384Z,3.65
2023-05-23T17:03:03.298Z,3.40
2023-05-23T17:05:30.984Z,4.12
2023-05-23T17:07:58.470Z,4.10
2023-05-23T17:10:26.203Z,3.70
2023-05-23T17:12:53.777Z,3.65
2023-05-23T17:15:21.274Z,3.90
2023-05-23T17:17:49.153Z,3.15
2023-05-23T17:20:16.701Z,3.30
2023-05-23T17:22:44.175Z,3.83
2023-05-23T17:25:11.930Z,4.03
2023-05-23T17:27:39.433Z,3.72
2023-05-23T17:30:07.452Z,3.85
2023-05-23T17:32:35.473Z,3.62
2023-05-23T17:35:02.984Z,3.85
2023-05-23T17:37:31.030Z,3.50
2023-05-23T17:39:58.880Z,4.18
2023-05-23T17:42:26.417Z,3.60
2023-05-23T17:44:53.859Z,4.85
2023-05-23T17:47:22.123Z,2.83
2023-05-23T17:49:49.623Z,3.50
2023-05-23T17:52:17.163Z,3.30
2023-05-23T17:54:44.954Z,4.03
2023-05-23T17:57:12.560Z,3.58
2023-05-23T17:59:40.193Z,4.50
2023-05-23T18:02:09.320Z,4.18
2023-05-23T18:04:37.257Z,3.42
2023-05-23T18:07:05.980Z,2.90
2023-05-23T18:09:33.599Z,3.05
2023-05-23T18:12:01.348Z,3.12
2023-05-23T18:14:28.923Z,3.45
2023-05-23T18:16:56.421Z,3.42
2023-05-23T18:19:24.195Z,4.00
2023-05-23T18:21:51.683Z,2.30
2023-05-23T18:24:19.226Z,3.87
2023-05-23T18:26:47.122Z,3.62
2023-05-23T18:29:14.566Z,4.43
2023-05-23T18:31:42.218Z,3.03
2023-05-23T18:34:10.326Z,2.75
2023-05-23T18:36:37.930Z,2.45
2023-05-23T18:39:05.727Z,3.53
2023-05-23T18:41:33.502Z,3.58
2023-05-23T18:44:02.122Z,3.40
2023-05-23T18:46:30.266Z,3.83
2023-05-23T18:48:58.421Z,3.03
2023-05-23T18:51:26.674Z,2.75
2023-05-23T18:53:54.248Z,2.58
2023-05-23T18:56:22.213Z,2.65
2023-05-23T18:58:51.541Z,2.72
2023-05-23T19:01:19.387Z,2.70
2023-05-23T19:03:47.340Z,2.78
2023-05-23T19:06:15.029Z,1.67
2023-05-23T19:08:42.898Z,2.12
2023-05-23T19:11:10.910Z,3.00
2023-05-23T19:13:38.533Z,2.55
2023-05-23T19:16:06.289Z,1.87
2023-05-23T19:18:34.088Z,2.25
2023-05-23T19:21:01.873Z,2.53
2023-05-23T19:23:29.745Z,2.17
2023-05-23T19:25:57.536Z,2.42
2023-05-23T19:28:25.060Z,2.12
2023-05-23T19:30:52.554Z,2.08
2023-05-23T19:33:21.441Z,1.98
2023-05-23T19:35:49.341Z,1.98
2023-05-23T19:38:16.888Z,1.67
2023-05-23T19:40:47.082Z,2.55
2023-05-23T19:43:14.683Z,1.98
2023-05-23T19:45:42.271Z,2.03
2023-05-23T19:48:10.150Z,1.90
2023-05-23T19:50:39.315Z,2.95
2023-05-23T19:53:07.054Z,1.85
2023-05-23T19:55:35.362Z,1.95
2023-05-23T19:58:02.896Z,1.73
2023-05-23T20:00:30.490Z,2.62
2023-05-23T20:02:58.414Z,2.10
2023-05-23T20:05:26.109Z,1.45
2023-05-23T20:07:53.813Z,1.48
2023-05-23T20:10:21.510Z,2.00
2023-05-23T20:12:49.276Z,2.20
2023-05-23T20:15:21.740Z,3.15
2023-05-23T20:17:56.358Z,2.35
2023-05-23T20:20:24.184Z,2.50
2023-05-23T20:22:51.831Z,2.42
2023-05-23T20:25:19.632Z,2.75
2023-05-23T20:27:47.085Z,2.08
2023-05-23T20:30:14.583Z,1.83
2023-05-23T20:32:42.856Z,1.73
2023-05-23T20:35:10.564Z,2.28
2023-05-23T20:37:39.254Z,2.15
2023-05-23T20:40:07.887Z,1.95
2023-05-23T20:42:36.465Z,2.45
2023-05-23T20:45:07.069Z,2.08
2023-05-23T20:47:37.437Z,2.30
2023-05-23T20:50:05.344Z,1.62
2023-05-23T20:52:32.902Z,2.17
2023-05-23T20:55:01.146Z,2.37
2023-05-23T20:57:30.117Z,2.65
2023-05-23T20:59:57.759Z,1.73
2023-05-23T21:02:25.851Z,1.70
2023-05-23T21:04:53.490Z,1.87
2023-05-23T21:07:20.972Z,1.75
2023-05-23T21:09:48.862Z,1.95
2023-05-23T21:12:16.277Z,1.95
2023-05-23T21:14:43.769Z,1.80
2023-05-23T21:17:11.684Z,1.83
2023-05-23T21:19:39.377Z,1.67
2023-05-23T21:22:07.015Z,1.70
2023-05-23T21:24:34.806Z,1.85
2023-05-23T21:27:02.986Z,2.50
2023-05-23T21:29:30.441Z,2.35
2023-05-23T21:31:58.788Z,3.17
2023-05-23T21:34:26.263Z,2.75
2023-05-23T21:36:53.781Z,2.28
2023-05-23T21:39:21.612Z,2.62
2023-05-23T21:41:49.172Z,2.20
2023-05-23T21:44:17.780Z,2.62
2023-05-23T21:46:45.869Z,2.78
2023-05-23T21:49:13.500Z,2.72
2023-05-23T21:51:41.002Z,4.07
2023-05-23T21:54:08.790Z,3.37
2023-05-23T21:56:36.322Z,3.25
2023-05-23T21:59:04.263Z,3.05
2023-05-23T22:01:32.440Z,2.97
2023-05-23T22:04:00.533Z,2.97
2023-05-23T22:06:28.079Z,3.72
2023-05-23T22:08:55.625Z,3.03
2023-05-23T22:11:23.370Z,2.92
2023-05-23T22:13:50.960Z,4.12
2023-05-23T22:16:18.545Z,2.60
2023-05-23T22:21:16.670Z,3.10
2023-05-23T22:23:44.119Z,2.95
2023-05-23T22:26:12.730Z,2.30
2023-05-23T22:28:40.393Z,3.62
2023-05-23T22:31:08.764Z,3.65
2023-05-23T22:33:37.655Z,2.87
2023-05-23T22:36:06.162Z,3.35
2023-05-23T22:38:34.071Z,3.00
2023-05-23T22:41:03.152Z,2.47
2023-05-23T22:43:30.911Z,2.53
2023-05-23T22:45:58.448Z,2.05
2023-05-23T22:48:26.245Z,2.50
2023-05-23T22:50:54.918Z,3.12
2023-05-23T22:53:24.979Z,3.00
2023-05-23T22:55:52.729Z,3.55
2023-05-23T22:58:20.563Z,2.92
2023-05-23T23:00:48.085Z,2.58
2023-05-23T23:03:16.090Z,2.05
2023-05-23T23:05:44.434Z,2.62
2023-05-23T23:08:12.404Z,3.75
2023-05-23T23:10:41.878Z,2.87
2023-05-23T23:13:09.524Z,2.78
2023-05-23T23:15:37.555Z,2.72
2023-05-23T23:18:06.030Z,2.12
2023-05-23T23:20:33.654Z,2.30
2023-05-23T23:23:01.219Z,2.92
2023-05-23T23:25:30.368Z,3.20
2023-05-23T23:27:57.845Z,2.22
2023-05-23T23:30:25.834Z,3.03
2023-05-23T23:32:53.606Z,2.17
2023-05-23T23:35:21.846Z,2.78
2023-05-23T23:37:49.344Z,3.97
2023-05-23T23:40:17.164Z,3.95
2023-05-23T23:42:44.666Z,3.70
2023-05-23T23:45:12.193Z,4.07
2023-05-23T23:47:39.982Z,3.20
2023-05-23T23:50:08.378Z,3.28
2023-05-23T23:52:37.395Z,3.72
2023-05-23T23:55:05.691Z,3.90
2023-05-23T23:57:33.236Z,3.42
